createdAt,value
2022-11-23T00:00:06.191Z,0.88
2022-11-23T00:01:06.361Z,0.8
2022-11-23T00:02:06.525Z,0.8
2022-11-23T00:03:06.599Z,0.8
2022-11-23T00:04:06.740Z,0.8
2022-11-23T00:05:06.904Z,0.64
2022-11-23T00:06:07.050Z,0.72
2022-11-23T00:07:07.213Z,0.72
2022-11-23T00:08:07.350Z,0.64
2022-11-23T00:09:07.509Z,0.64
2022-11-23T00:10:07.664Z,0.88
2022-11-23T00:11:07.809Z,0.8
2022-11-23T00:12:08.007Z,0.72
2022-11-23T00:13:08.155Z,0.64
2022-11-23T00:14:08.359Z,0.48
2022-11-23T00:15:08.394Z,0.32
2022-11-23T00:16:08.505Z,0.24
2022-11-23T00:17:08.799Z,0.64
2022-11-23T00:18:08.829Z,0.72
2022-11-23T00:19:08.971Z,0.72
2022-11-23T00:20:09.118Z,0.64
2022-11-23T00:21:09.268Z,0.4
2022-11-23T00:22:09.418Z,0.4
2022-11-23T00:23:09.572Z,0.32
2022-11-23T00:24:09.726Z,0.64
2022-11-23T00:25:09.911Z,0.8
2022-11-23T00:26:10.032Z,1.12
2022-11-23T00:27:10.172Z,1.12
2022-11-23T00:28:10.336Z,0.88
2022-11-23T00:29:10.485Z,0.8
2022-11-23T00:30:10.655Z,1.28
2022-11-23T00:31:10.767Z,0.8
2022-11-23T00:32:10.944Z,0.72
2022-11-23T00:33:11.134Z,0.64
2022-11-23T00:34:11.246Z,1.2
2022-11-23T00:35:11.399Z,1.52
2022-11-23T00:36:11.626Z,1.92
2022-11-23T00:37:11.729Z,2
2022-11-23T00:38:11.877Z,2.08
2022-11-23T00:39:12.096Z,2
2022-11-23T00:40:12.248Z,2.08
2022-11-23T00:41:12.399Z,2.24
2022-11-23T00:42:12.501Z,2.08
2022-11-23T00:43:12.654Z,2
2022-11-23T00:44:12.808Z,2
2022-11-23T00:45:12.957Z,1.92
2022-11-23T00:46:13.088Z,2.08
2022-11-23T00:47:13.254Z,2.08
2022-11-23T00:48:13.414Z,2.08
2022-11-23T00:49:13.567Z,2.24
2022-11-23T00:50:13.715Z,2
2022-11-23T00:51:13.863Z,2.24
2022-11-23T00:52:14.010Z,2.24
2022-11-23T00:53:14.177Z,2.24
2022-11-23T00:54:14.322Z,2.08
2022-11-23T00:55:14.469Z,2.08
2022-11-23T00:56:14.597Z,1.92
2022-11-23T00:57:14.709Z,2.08
2022-11-23T00:58:14.877Z,1.92
2022-11-23T00:59:15.022Z,2
2022-11-23T01:00:15.180Z,2
2022-11-23T01:01:15.367Z,2.08
2022-11-23T01:02:15.412Z,2.24
2022-11-23T01:03:15.530Z,2.24
2022-11-23T01:04:15.666Z,2.32
2022-11-23T01:05:15.852Z,2.32
2022-11-23T01:06:15.921Z,2.24
2022-11-23T01:07:16.138Z,2.32
2022-11-23T01:08:16.240Z,2.24
2022-11-23T01:09:16.393Z,2.08
2022-11-23T01:10:16.537Z,2
2022-11-23T01:11:16.691Z,2.08
2022-11-23T01:12:16.848Z,1.68
2022-11-23T01:13:16.945Z,1.68
2022-11-23T01:14:17.100Z,1.6
2022-11-23T01:15:17.251Z,1.44
2022-11-23T01:16:23.528Z,1.12
2022-11-23T01:17:17.551Z,1.04
2022-11-23T01:18:17.715Z,1.2
2022-11-23T01:19:17.856Z,1.52
2022-11-23T01:20:17.993Z,1.52
2022-11-23T01:21:18.094Z,1.04
2022-11-23T01:22:18.261Z,0.8
2022-11-23T01:23:18.413Z,0.8
2022-11-23T01:24:18.562Z,1.12
2022-11-23T01:25:18.717Z,1.28
2022-11-23T01:26:18.861Z,1.28
2022-11-23T01:27:19.017Z,1.68
2022-11-23T01:28:19.162Z,1.68
2022-11-23T01:29:19.320Z,1.52
2022-11-23T01:30:19.465Z,1.84
2022-11-23T01:31:19.611Z,1.92
2022-11-23T01:32:19.775Z,2.08
2022-11-23T01:33:19.923Z,2.08
2022-11-23T01:34:20.078Z,2.08
2022-11-23T01:35:20.232Z,2
2022-11-23T01:36:20.380Z,1.68
2022-11-23T01:37:20.527Z,1.84
2022-11-23T01:38:20.682Z,1.52
2022-11-23T01:39:20.853Z,1.68
2022-11-23T01:40:20.982Z,1.6
2022-11-23T01:41:21.137Z,1.44
2022-11-23T01:42:21.296Z,1.12
2022-11-23T01:43:21.395Z,0.88
2022-11-23T01:44:21.495Z,0.8
2022-11-23T01:45:21.626Z,0.64
2022-11-23T01:46:21.744Z,0.48
2022-11-23T01:47:21.866Z,0.64
2022-11-23T01:48:22.000Z,0.4
2022-11-23T01:49:22.102Z,0.4
2022-11-23T01:50:22.255Z,0.4
2022-11-23T01:51:22.405Z,0.64
2022-11-23T01:52:22.553Z,0.48
2022-11-23T01:53:22.702Z,0.48
2022-11-23T01:54:22.857Z,0.72
2022-11-23T01:55:23.005Z,0.64
2022-11-23T01:56:23.114Z,0.88
2022-11-23T01:57:23.258Z,1.44
2022-11-23T01:58:23.413Z,1.04
2022-11-23T01:59:23.569Z,0.72
2022-11-23T02:00:23.667Z,0.48
2022-11-23T02:01:23.886Z,0.4
2022-11-23T02:02:23.913Z,0.48
2022-11-23T02:03:24.017Z,0.4
2022-11-23T02:04:24.171Z,0.32
2022-11-23T02:05:24.325Z,0.24
2022-11-23T02:06:24.483Z,0.48
2022-11-23T02:07:24.611Z,0.88
2022-11-23T02:08:24.735Z,0.88
2022-11-23T02:09:24.886Z,1.28
2022-11-23T02:10:25.035Z,1.44
2022-11-23T02:11:25.180Z,1.52
2022-11-23T02:12:25.298Z,1.84
2022-11-23T02:13:25.415Z,1.92
2022-11-23T02:14:25.601Z,2.08
2022-11-23T02:15:25.737Z,2.24
2022-11-23T02:16:25.869Z,2
2022-11-23T02:17:25.987Z,2.08
2022-11-23T02:18:26.140Z,2.08
2022-11-23T02:19:26.302Z,2.24
2022-11-23T02:20:26.441Z,2.24
2022-11-23T02:21:26.594Z,2.32
2022-11-23T02:22:26.745Z,2.32
2022-11-23T02:23:26.902Z,2.32
2022-11-23T02:24:27.051Z,2.4
2022-11-23T02:25:27.200Z,2.48
2022-11-23T02:26:27.352Z,2.72
2022-11-23T02:27:27.503Z,2.48
2022-11-23T02:28:27.650Z,2.48
2022-11-23T02:29:27.808Z,2.48
2022-11-23T02:30:27.962Z,2.4
2022-11-23T02:31:28.044Z,2.48
2022-11-23T02:32:28.215Z,2.48
2022-11-23T02:33:28.358Z,2.48
2022-11-23T02:34:28.514Z,2.48
2022-11-23T02:35:28.671Z,2.48
2022-11-23T02:36:28.808Z,2.64
2022-11-23T02:37:28.992Z,2.64
2022-11-23T02:38:29.072Z,2.64
2022-11-23T02:39:29.320Z,2.64
2022-11-23T02:40:29.371Z,2.48
2022-11-23T02:41:29.556Z,2.48
2022-11-23T02:42:29.736Z,2.64
2022-11-23T02:43:29.846Z,2.64
2022-11-23T02:44:29.964Z,2.64
2022-11-23T02:45:30.104Z,2.4
2022-11-23T02:46:30.216Z,2.48
2022-11-23T02:47:30.437Z,2.48
2022-11-23T02:48:30.488Z,2.48
2022-11-23T02:49:30.841Z,2.4
2022-11-23T02:50:30.783Z,2.72
2022-11-23T02:51:30.900Z,2.8
2022-11-23T02:52:31.036Z,2.88
2022-11-23T02:53:31.145Z,3.12
2022-11-23T02:54:31.296Z,2.88
2022-11-23T02:55:31.443Z,2.88
2022-11-23T02:56:31.603Z,2.8
2022-11-23T02:57:31.757Z,2.72
2022-11-23T02:58:31.858Z,2.8
2022-11-23T02:59:32.314Z,2.8
2022-11-23T03:00:32.132Z,3.04
2022-11-23T03:01:32.190Z,2.88
2022-11-23T03:02:32.343Z,2.88
2022-11-23T03:03:32.506Z,2.88
2022-11-23T03:04:32.668Z,3.12
2022-11-23T03:05:32.811Z,3.04
2022-11-23T03:06:32.910Z,3.04
2022-11-23T03:07:33.088Z,3.04
2022-11-23T03:08:33.213Z,3.12
2022-11-23T03:09:33.613Z,3.12
2022-11-23T03:10:33.513Z,3.12
2022-11-23T03:11:33.612Z,3.12
2022-11-23T03:12:33.770Z,3.2
2022-11-23T03:13:33.920Z,3.2
2022-11-23T03:14:34.074Z,3.12
2022-11-23T03:15:34.227Z,3.12
2022-11-23T03:16:34.360Z,3.12
2022-11-23T03:17:34.529Z,3.2
2022-11-23T03:18:34.681Z,3.2
2022-11-23T03:19:35.200Z,3.2
2022-11-23T03:20:34.986Z,3.2
2022-11-23T03:21:35.132Z,3.28
2022-11-23T03:22:35.239Z,3.28
2022-11-23T03:23:35.385Z,3.2
2022-11-23T03:24:35.488Z,3.28
2022-11-23T03:25:35.592Z,3.2
2022-11-23T03:26:35.743Z,3.2
2022-11-23T03:27:35.851Z,3.28
2022-11-23T03:28:35.989Z,3.28
2022-11-23T03:29:36.153Z,3.2
2022-11-23T03:30:36.276Z,3.28
2022-11-23T03:31:36.394Z,3.2
2022-11-23T03:32:36.548Z,3.28
2022-11-23T03:33:36.721Z,3.2
2022-11-23T03:34:36.857Z,3.44
2022-11-23T03:35:36.956Z,3.2
2022-11-23T03:36:37.100Z,3.2
2022-11-23T03:37:37.209Z,3.12
2022-11-23T03:38:37.349Z,3.2
2022-11-23T03:39:37.567Z,3.2
2022-11-23T03:40:37.664Z,3.2
2022-11-23T03:41:37.808Z,3.12
2022-11-23T03:42:37.962Z,3.28
2022-11-23T03:43:38.110Z,3.28
2022-11-23T03:44:38.219Z,3.28
2022-11-23T03:45:38.352Z,3.2
2022-11-23T03:46:38.517Z,3.28
2022-11-23T03:47:38.668Z,3.12
2022-11-23T03:48:38.764Z,3.2
2022-11-23T03:49:38.930Z,3.12
2022-11-23T03:50:39.023Z,3.12
2022-11-23T03:51:39.141Z,3.2
2022-11-23T03:52:39.263Z,3.2
2022-11-23T03:53:39.425Z,3.2
2022-11-23T03:54:39.578Z,3.2
2022-11-23T03:55:39.727Z,3.04
2022-11-23T03:56:39.886Z,3.04
2022-11-23T03:57:40.030Z,3.04
2022-11-23T03:58:40.132Z,2.88
2022-11-23T03:59:40.288Z,2.88
2022-11-23T04:00:40.460Z,3.04
2022-11-23T04:01:40.534Z,2.88
2022-11-23T04:02:40.642Z,2.72
2022-11-23T04:03:40.794Z,2.72
2022-11-23T04:04:40.950Z,2.72
2022-11-23T04:05:41.088Z,2.72
2022-11-23T04:06:41.197Z,2.72
2022-11-23T04:07:41.344Z,2.64
2022-11-23T04:08:41.455Z,2.72
2022-11-23T04:09:41.609Z,2.64
2022-11-23T04:10:41.761Z,2.8
2022-11-23T04:11:41.900Z,2.48
2022-11-23T04:12:42.070Z,2.32
2022-11-23T04:13:42.210Z,2.48
2022-11-23T04:14:42.366Z,2.4
2022-11-23T04:15:42.490Z,2.32
2022-11-23T04:16:42.656Z,2.4
2022-11-23T04:17:42.767Z,2.48
2022-11-23T04:18:42.910Z,2.8
2022-11-23T04:19:43.016Z,2.8
2022-11-23T04:20:43.164Z,2.8
2022-11-23T04:21:43.315Z,2.8
2022-11-23T04:22:43.501Z,2.64
2022-11-23T04:23:43.629Z,2.64
2022-11-23T04:24:43.760Z,2.8
2022-11-23T04:25:43.939Z,2.32
2022-11-23T04:26:44.086Z,1.84
2022-11-23T04:27:44.219Z,1.68
2022-11-23T04:28:44.373Z,1.68
2022-11-23T04:29:44.530Z,1.6
2022-11-23T04:30:44.668Z,1.44
2022-11-23T04:31:44.812Z,1.44
2022-11-23T04:32:44.953Z,1.52
2022-11-23T04:33:45.040Z,1.52
2022-11-23T04:34:45.185Z,1.28
2022-11-23T04:35:45.324Z,1.12
2022-11-23T04:36:45.485Z,1.12
2022-11-23T04:37:45.643Z,1.12
2022-11-23T04:38:46.126Z,1.2
2022-11-23T04:39:46.309Z,1.04
2022-11-23T04:40:46.479Z,1.04
2022-11-23T04:41:46.663Z,1.04
2022-11-23T04:42:46.355Z,1.04
2022-11-23T04:43:46.501Z,1.12
2022-11-23T04:44:46.606Z,0.88
2022-11-23T04:45:46.736Z,0.8
2022-11-23T04:46:46.902Z,1.28
2022-11-23T04:47:47.060Z,1.28
2022-11-23T04:48:47.208Z,1.04
2022-11-23T04:49:47.310Z,0.88
2022-11-23T04:50:48.502Z,0.8
2022-11-23T04:51:47.652Z,1.28
2022-11-23T04:52:47.755Z,1.12
2022-11-23T04:53:47.916Z,1.12
2022-11-23T04:54:48.059Z,1.12
2022-11-23T04:55:48.218Z,1.04
2022-11-23T04:56:48.353Z,1.04
2022-11-23T04:57:48.505Z,1.12
2022-11-23T04:58:48.672Z,1.04
2022-11-23T04:59:48.813Z,1.2
2022-11-23T05:00:49.001Z,1.12
2022-11-23T05:01:49.057Z,1.2
2022-11-23T05:02:49.181Z,1.52
2022-11-23T05:03:49.326Z,1.68
2022-11-23T05:04:49.483Z,1.6
2022-11-23T05:05:49.581Z,1.92
2022-11-23T05:06:49.700Z,1.92
2022-11-23T05:07:49.898Z,2
2022-11-23T05:08:49.979Z,1.92
2022-11-23T05:09:50.144Z,1.84
2022-11-23T05:10:50.284Z,2
2022-11-23T05:11:50.438Z,2.08
2022-11-23T05:12:50.585Z,2.08
2022-11-23T05:13:50.689Z,2.24
2022-11-23T05:14:50.844Z,2.08
2022-11-23T05:15:50.980Z,2.08
2022-11-23T05:16:51.084Z,2.08
2022-11-23T05:17:54.055Z,2.32
2022-11-23T05:18:51.400Z,2.24
2022-11-23T05:19:51.508Z,2.32
2022-11-23T05:20:51.651Z,2.32
2022-11-23T05:21:51.807Z,2.24
2022-11-23T05:22:51.966Z,2.24
2022-11-23T05:23:52.113Z,2.32
2022-11-23T05:24:52.211Z,2.4
2022-11-23T05:25:52.363Z,2.4
2022-11-23T05:26:56.150Z,2.4
2022-11-23T05:27:53.032Z,2.4
2022-11-23T05:28:52.762Z,2.24
2022-11-23T05:29:52.917Z,2.32
2022-11-23T05:30:53.004Z,2.32
2022-11-23T05:31:53.164Z,2.32
2022-11-23T05:32:53.319Z,2.32
2022-11-23T05:33:53.472Z,2.4
2022-11-23T05:34:53.577Z,2.32
2022-11-23T05:35:53.727Z,2.64
2022-11-23T05:36:53.871Z,2.72
2022-11-23T05:37:54.018Z,2.64
2022-11-23T05:38:54.132Z,2.4
2022-11-23T05:39:54.282Z,2.48
2022-11-23T05:40:54.427Z,2.4
2022-11-23T05:41:54.532Z,2.4
2022-11-23T05:42:54.678Z,2.48
2022-11-23T05:43:54.829Z,2.4
2022-11-23T05:44:54.985Z,2.4
2022-11-23T05:45:55.125Z,2.4
2022-11-23T05:46:55.286Z,2.48
2022-11-23T05:47:55.441Z,2.64
2022-11-23T05:48:55.588Z,2.64
2022-11-23T05:49:55.752Z,2.48
2022-11-23T05:50:57.715Z,2.48
2022-11-23T05:51:55.999Z,2.72
2022-11-23T05:52:56.148Z,2.48
2022-11-23T05:53:56.296Z,2.32
2022-11-23T05:54:56.456Z,2.48
2022-11-23T05:55:56.610Z,2.48
2022-11-23T05:56:56.739Z,2.64
2022-11-23T05:57:56.906Z,2.4
2022-11-23T05:58:57.059Z,2.4
2022-11-23T05:59:57.212Z,2.48
2022-11-23T06:00:57.341Z,2.4
2022-11-23T06:01:57.490Z,2.32
2022-11-23T06:02:57.612Z,2.48
2022-11-23T06:03:57.825Z,2.4
2022-11-23T06:04:57.910Z,2.48
2022-11-23T06:05:58.069Z,2.48
2022-11-23T06:06:58.217Z,2.48
2022-11-23T06:07:58.346Z,2.64
2022-11-23T06:08:58.474Z,2.4
2022-11-23T06:09:58.625Z,2.4
2022-11-23T06:10:58.774Z,2.4
2022-11-23T06:11:58.927Z,2.4
2022-11-23T06:12:59.038Z,2.48
2022-11-23T06:13:59.177Z,2.64
2022-11-23T06:14:59.330Z,2.48
2022-11-23T06:15:59.503Z,2.48
2022-11-23T06:16:59.624Z,2.48
2022-11-23T06:17:59.721Z,2.48
2022-11-23T06:18:59.823Z,2.48
2022-11-23T06:19:59.992Z,2.4
2022-11-23T06:21:00.092Z,2.8
2022-11-23T06:22:00.239Z,2.72
2022-11-23T06:23:00.393Z,2.8
2022-11-23T06:24:00.541Z,2.8
2022-11-23T06:25:00.696Z,2.72
2022-11-23T06:26:00.848Z,2.8
2022-11-23T06:27:00.955Z,2.72
2022-11-23T06:28:01.098Z,2.72
2022-11-23T06:29:01.200Z,2.48
2022-11-23T06:30:01.353Z,2.72
2022-11-23T06:31:01.443Z,2.64
2022-11-23T06:32:01.546Z,3.04
2022-11-23T06:33:01.651Z,2.8
2022-11-23T06:34:01.805Z,2.88
2022-11-23T06:35:01.924Z,2.88
2022-11-23T06:36:02.044Z,2.72
2022-11-23T06:37:02.211Z,2.72
2022-11-23T06:38:02.356Z,2.88
2022-11-23T06:39:02.473Z,2.88
2022-11-23T06:40:02.639Z,2.8
2022-11-23T06:41:02.771Z,2.8
2022-11-23T06:42:23.663Z,2.72
2022-11-23T06:43:03.031Z,2.64
2022-11-23T06:44:03.212Z,2.72
2022-11-23T06:45:03.348Z,2.4
2022-11-23T06:46:03.459Z,2.8
2022-11-23T06:47:03.561Z,2.64
2022-11-23T06:48:03.677Z,2.64
2022-11-23T06:49:03.833Z,2.48
2022-11-23T06:50:03.931Z,2.64
2022-11-23T06:51:04.080Z,2.64
2022-11-23T06:52:04.234Z,2.72
2022-11-23T06:53:04.389Z,2.48
2022-11-23T06:54:04.535Z,2.8
2022-11-23T06:55:04.688Z,2.88
2022-11-23T06:56:04.839Z,2.8
2022-11-23T06:57:04.985Z,2.8
2022-11-23T06:58:05.150Z,3.04
2022-11-23T06:59:05.290Z,2.88
2022-11-23T07:00:05.491Z,2.8
2022-11-23T07:01:05.682Z,2.88
2022-11-23T07:02:05.874Z,2.8
2022-11-23T07:03:06.046Z,2.8
2022-11-23T07:04:06.233Z,2.8
2022-11-23T07:05:06.397Z,2.88
2022-11-23T07:06:06.549Z,2.88
2022-11-23T07:07:06.735Z,2.8
2022-11-23T07:08:06.851Z,2.88
2022-11-23T07:09:07.001Z,2.88
2022-11-23T07:10:07.525Z,3.12
2022-11-23T07:11:07.264Z,2.8
2022-11-23T07:12:07.422Z,2.8
2022-11-23T07:13:07.557Z,2.88
2022-11-23T07:14:07.718Z,3.04
2022-11-23T07:15:07.877Z,3.04
2022-11-23T07:16:08.004Z,3.04
2022-11-23T07:17:08.169Z,2.88
2022-11-23T07:18:08.272Z,2.88
2022-11-23T07:19:08.437Z,3.04
2022-11-23T07:20:08.576Z,2.88
2022-11-23T07:21:08.725Z,3.04
2022-11-23T07:22:08.872Z,3.04
2022-11-23T07:23:09.031Z,3.2
2022-11-23T07:24:09.127Z,3.2
2022-11-23T07:25:09.280Z,3.2
2022-11-23T07:26:09.429Z,3.44
2022-11-23T07:27:09.588Z,3.28
2022-11-23T07:28:09.732Z,3.44
2022-11-23T07:29:09.882Z,3.44
2022-11-23T07:30:10.039Z,3.44
2022-11-23T07:31:10.182Z,3.52
2022-11-23T07:32:10.347Z,3.52
2022-11-23T07:33:10.500Z,3.6
2022-11-23T07:34:10.594Z,3.68
2022-11-23T07:35:10.746Z,4
2022-11-23T07:36:10.900Z,3.84
2022-11-23T07:37:11.045Z,3.84
2022-11-23T07:38:11.149Z,3.92
2022-11-23T07:39:11.297Z,4
2022-11-23T07:40:11.452Z,4
2022-11-23T07:41:11.605Z,4.32
2022-11-23T07:42:31.477Z,4.48
2022-11-23T07:43:11.904Z,4.32
2022-11-23T07:44:12.062Z,4
2022-11-23T07:45:12.216Z,4
2022-11-23T07:46:12.350Z,4.08
2022-11-23T07:47:12.510Z,3.92
2022-11-23T07:48:13.018Z,3.92
2022-11-23T07:49:12.807Z,4
2022-11-23T07:50:12.936Z,4.08
2022-11-23T07:51:13.011Z,4.16
2022-11-23T07:52:13.114Z,4.48
2022-11-23T07:53:13.219Z,4.8
2022-11-23T07:54:13.359Z,4.48
2022-11-23T07:55:13.463Z,4.16
2022-11-23T07:56:13.617Z,4
2022-11-23T07:57:13.766Z,4.08
2022-11-23T07:58:13.862Z,4.16
2022-11-23T07:59:13.973Z,4.16
2022-11-23T08:00:14.141Z,4.48
2022-11-23T08:01:14.274Z,4.48
2022-11-23T08:02:14.483Z,4.72
2022-11-23T08:03:28.974Z,4.88
2022-11-23T08:04:14.737Z,5.12
2022-11-23T08:05:14.886Z,5.44
2022-11-23T08:06:15.052Z,5.68
2022-11-23T08:07:15.162Z,5.52
2022-11-23T08:08:15.293Z,5.12
2022-11-23T08:09:15.444Z,5.04
2022-11-23T08:10:15.597Z,4.88
2022-11-23T08:11:15.749Z,4.88
2022-11-23T08:12:15.898Z,4.88
2022-11-23T08:13:16.049Z,5.04
2022-11-23T08:14:16.202Z,5.04
2022-11-23T08:15:16.368Z,5.04
2022-11-23T08:16:16.487Z,5.04
2022-11-23T08:17:16.651Z,5.2
2022-11-23T08:18:16.800Z,5.52
2022-11-23T08:19:16.961Z,6.08
2022-11-23T08:20:17.106Z,6.8
2022-11-23T08:21:17.260Z,6.48
2022-11-23T08:22:17.415Z,6
2022-11-23T08:23:17.567Z,5.68
2022-11-23T08:24:17.727Z,5.6
2022-11-23T08:25:17.863Z,5.68
2022-11-23T08:26:18.016Z,5.6
2022-11-23T08:27:18.166Z,5.68
2022-11-23T08:28:18.270Z,5.6
2022-11-23T08:29:18.427Z,6.4
2022-11-23T08:30:18.572Z,6.72
2022-11-23T08:31:18.711Z,6.72
2022-11-23T08:32:18.888Z,6.4
2022-11-23T08:33:19.020Z,6.32
2022-11-23T08:34:19.180Z,6
2022-11-23T08:35:19.330Z,7.2
2022-11-23T08:36:19.494Z,7.6
2022-11-23T08:37:19.584Z,7.84
2022-11-23T08:38:19.734Z,8.8
2022-11-23T08:39:19.892Z,10
2022-11-23T08:40:24.923Z,9.2
2022-11-23T08:41:20.185Z,8.88
2022-11-23T08:42:20.298Z,10.639999
2022-11-23T08:43:20.449Z,9.92
2022-11-23T08:44:20.590Z,9.679999
2022-11-23T08:45:20.752Z,9.52
2022-11-23T08:46:20.890Z,9.04
2022-11-23T08:47:21.052Z,10.8
2022-11-23T08:48:21.198Z,12
2022-11-23T08:49:21.348Z,11.599999
2022-11-23T08:50:21.502Z,10.88
2022-11-23T08:51:21.671Z,12.4
2022-11-23T08:52:21.802Z,12.32
2022-11-23T08:53:21.964Z,12.88
2022-11-23T08:54:22.112Z,13.28
2022-11-23T08:55:22.322Z,13.599999
2022-11-23T08:56:22.468Z,13.04
2022-11-23T08:57:22.600Z,13.599999
2022-11-23T08:58:22.771Z,12.639999
2022-11-23T08:59:22.918Z,13.44
2022-11-23T09:00:23.175Z,12.799999
2022-11-23T09:01:23.272Z,12.32
2022-11-23T09:02:23.302Z,14
2022-11-23T09:03:23.472Z,12.719999
2022-11-23T09:04:23.621Z,10.8
2022-11-23T09:05:23.780Z,9.84
2022-11-23T09:06:23.904Z,9.679999
2022-11-23T09:07:24.079Z,9.04
2022-11-23T09:08:24.185Z,9.28
2022-11-23T09:09:24.334Z,10
2022-11-23T09:10:24.480Z,10
2022-11-23T09:11:24.619Z,10.719999
2022-11-23T09:12:24.775Z,10.4
2022-11-23T09:13:24.871Z,9.599999
2022-11-23T09:14:25.044Z,9.679999
2022-11-23T09:15:25.197Z,9.599999
2022-11-23T09:16:27.472Z,10.08
2022-11-23T09:17:25.490Z,9.36
2022-11-23T09:18:25.641Z,8.8
2022-11-23T09:19:25.813Z,9.36
2022-11-23T09:20:25.941Z,10
2022-11-23T09:21:26.098Z,8.88
2022-11-23T09:22:26.243Z,9.36
2022-11-23T09:23:26.408Z,9.599999
2022-11-23T09:24:26.609Z,9.84
2022-11-23T09:25:26.705Z,9.12
2022-11-23T09:26:26.852Z,9.84
2022-11-23T09:27:27.017Z,9.92
2022-11-23T09:28:27.177Z,8.8
2022-11-23T09:29:27.411Z,8.24
2022-11-23T09:30:27.470Z,8.4
2022-11-23T09:31:27.571Z,8.639999
2022-11-23T09:32:27.719Z,8.4
2022-11-23T09:33:27.862Z,9.28
2022-11-23T09:34:28.017Z,9.599999
2022-11-23T09:35:28.189Z,8.08
2022-11-23T09:36:28.304Z,9.12
2022-11-23T09:37:28.471Z,9.679999
2022-11-23T09:38:44.714Z,8.4
2022-11-23T09:39:28.771Z,9.12
2022-11-23T09:40:28.891Z,8.72
2022-11-23T09:41:29.023Z,8.08
2022-11-23T09:42:29.189Z,8.24
2022-11-23T09:43:29.329Z,8.08
2022-11-23T09:44:29.746Z,8.08
2022-11-23T09:45:29.623Z,7.92
2022-11-23T09:46:32.920Z,7.44
2022-11-23T09:47:29.837Z,7.6
2022-11-23T09:48:29.992Z,8.32
2022-11-23T09:49:30.143Z,7.92
2022-11-23T09:50:30.292Z,7.68
2022-11-23T09:51:30.437Z,7.44
2022-11-23T09:52:30.604Z,7.44
2022-11-23T09:53:30.738Z,7.84
2022-11-23T09:54:30.983Z,7.6
2022-11-23T09:55:30.998Z,7.84
2022-11-23T09:56:31.156Z,7.44
2022-11-23T09:57:31.336Z,8.08
2022-11-23T09:58:31.403Z,7.92
2022-11-23T09:59:31.518Z,7.6
2022-11-23T10:00:31.656Z,8
2022-11-23T10:01:31.843Z,8.24
2022-11-23T10:02:31.994Z,7.84
2022-11-23T10:03:32.108Z,7.44
2022-11-23T10:04:32.352Z,7.44
2022-11-23T10:05:32.375Z,7.28
2022-11-23T10:06:32.519Z,6.88
2022-11-23T10:07:32.755Z,6.88
2022-11-23T10:08:32.820Z,7.04
2022-11-23T10:09:33.005Z,7.52
2022-11-23T10:10:33.118Z,7.84
2022-11-23T10:11:33.271Z,7.52
2022-11-23T10:12:37.253Z,7.28
2022-11-23T10:13:33.559Z,7.2
2022-11-23T10:14:33.913Z,6.88
2022-11-23T10:15:33.843Z,7.12
2022-11-23T10:16:33.918Z,7.12
2022-11-23T10:17:34.078Z,7.04
2022-11-23T10:18:34.238Z,7.2
2022-11-23T10:19:34.354Z,7.2
2022-11-23T10:20:34.506Z,7.28
2022-11-23T10:21:34.638Z,7.12
2022-11-23T10:22:34.804Z,7.12
2022-11-23T10:23:34.933Z,6.88
2022-11-23T10:24:35.351Z,7.12
2022-11-23T10:25:39.011Z,7.2
2022-11-23T10:26:35.442Z,7.52
2022-11-23T10:27:35.550Z,7.44
2022-11-23T10:28:36.172Z,7.12
2022-11-23T10:29:36.204Z,7.12
2022-11-23T10:30:35.957Z,7.28
2022-11-23T10:31:35.995Z,7.2
2022-11-23T10:32:36.174Z,7.6
2022-11-23T10:33:36.369Z,7.6
2022-11-23T10:34:36.573Z,7.28
2022-11-23T10:35:36.955Z,7.12
2022-11-23T10:36:37.256Z,7.44
2022-11-23T10:37:37.274Z,7.52
2022-11-23T10:38:37.456Z,7.6
2022-11-23T10:39:37.622Z,8.08
2022-11-23T10:40:37.775Z,8.48
2022-11-23T10:41:37.913Z,8.72
2022-11-23T10:42:38.059Z,9.679999
2022-11-23T10:43:38.231Z,11.28
2022-11-23T10:44:38.367Z,11.599999
2022-11-23T10:45:38.541Z,11.12
2022-11-23T10:46:38.687Z,11.52
2022-11-23T10:47:38.818Z,11.44
2022-11-23T10:48:38.973Z,11.12
2022-11-23T10:49:39.130Z,11.52
2022-11-23T10:50:39.275Z,12.24
2022-11-23T10:51:39.434Z,12.4
2022-11-23T10:52:39.580Z,12.4
2022-11-23T10:53:39.743Z,11.599999
2022-11-23T10:54:39.863Z,11.599999
2022-11-23T10:55:40.080Z,11.04
2022-11-23T10:56:40.230Z,10.719999
2022-11-23T10:57:40.378Z,10.88
2022-11-23T10:58:40.536Z,10.48
2022-11-23T10:59:40.683Z,10
2022-11-23T11:00:40.824Z,9.599999
2022-11-23T11:01:40.974Z,9.599999
2022-11-23T11:02:41.098Z,9.599999
2022-11-23T11:03:41.274Z,9.28
2022-11-23T11:04:41.384Z,10
2022-11-23T11:06:08.897Z,11.12
2022-11-23T11:06:41.704Z,11.44
2022-11-23T11:07:41.928Z,10.719999
2022-11-23T11:08:42.007Z,10.639999
2022-11-23T11:09:42.114Z,10.48
2022-11-23T11:10:42.229Z,10.88
2022-11-23T11:11:42.398Z,11.52
2022-11-23T11:12:42.563Z,10.48
2022-11-23T11:13:42.710Z,11.2
2022-11-23T11:14:43.500Z,12.4
2022-11-23T11:15:47.469Z,12.48
2022-11-23T11:16:46.567Z,12.24
2022-11-23T11:17:43.252Z,11.599999
2022-11-23T11:18:43.410Z,11.84
2022-11-23T11:19:43.512Z,11.04
2022-11-23T11:20:43.718Z,11.28
2022-11-23T11:21:43.814Z,11.2
2022-11-23T11:22:47.696Z,11.52
2022-11-23T11:23:44.076Z,11.2
2022-11-23T11:24:44.233Z,10.639999
2022-11-23T11:25:44.390Z,10.8
2022-11-23T11:26:44.481Z,11.04
2022-11-23T11:27:44.637Z,11.04
2022-11-23T11:28:44.777Z,10.719999
2022-11-23T11:29:44.940Z,11.2
2022-11-23T11:30:45.077Z,11.84
2022-11-23T11:31:45.245Z,11.679999
2022-11-23T11:32:45.385Z,12.24
2022-11-23T11:33:45.545Z,10.8
2022-11-23T11:34:45.643Z,10.719999
2022-11-23T11:35:45.799Z,11.04
2022-11-23T11:36:45.930Z,10.719999
2022-11-23T11:37:46.098Z,10.88
2022-11-23T11:39:01.594Z,11.84
2022-11-23T11:39:46.399Z,11.04
2022-11-23T11:40:46.662Z,10.8
2022-11-23T11:41:46.825Z,10.88
2022-11-23T11:42:46.967Z,10.639999
2022-11-23T11:43:47.101Z,10.48
2022-11-23T11:44:47.279Z,10.48
2022-11-23T11:46:06.369Z,10.8
2022-11-23T11:46:47.544Z,10.88
2022-11-23T11:47:47.656Z,10.639999
2022-11-23T11:48:47.838Z,11.04
2022-11-23T11:49:47.962Z,10.48
2022-11-23T11:50:48.117Z,10.08
2022-11-23T11:51:48.266Z,9.679999
2022-11-23T11:52:48.451Z,10
2022-11-23T11:53:48.653Z,9.679999
2022-11-23T11:54:48.733Z,9.28
2022-11-23T11:55:48.853Z,9.28
2022-11-23T11:56:49.026Z,9.28
2022-11-23T11:57:49.194Z,9.28
2022-11-23T11:58:49.341Z,9.12
2022-11-23T11:59:49.476Z,9.12
2022-11-23T12:00:49.615Z,9.12
2022-11-23T12:01:49.780Z,9.12
2022-11-23T12:02:49.986Z,9.04
2022-11-23T12:03:50.080Z,9.36
2022-11-23T12:04:50.234Z,9.04
2022-11-23T12:05:50.382Z,8.88
2022-11-23T12:06:50.512Z,8.88
2022-11-23T12:07:50.675Z,8.72
2022-11-23T12:08:50.801Z,8.72
2022-11-23T12:09:50.947Z,8.639999
2022-11-23T12:10:51.097Z,8.639999
2022-11-23T12:11:51.308Z,8.48
2022-11-23T12:12:51.465Z,8.48
2022-11-23T12:13:51.542Z,8.4
2022-11-23T12:14:51.704Z,8.639999
2022-11-23T12:15:51.885Z,8.48
2022-11-23T12:17:04.261Z,8.8
2022-11-23T12:17:52.149Z,8.72
2022-11-23T12:18:52.293Z,8.639999
2022-11-23T12:19:52.391Z,8.48
2022-11-23T12:20:52.504Z,8.4
2022-11-23T12:21:55.672Z,8.4
2022-11-23T12:22:52.710Z,8.48
2022-11-23T12:23:52.845Z,8.72
2022-11-23T12:24:53.006Z,8.72
2022-11-23T12:25:53.166Z,8.72
2022-11-23T12:26:53.302Z,8.8
2022-11-23T12:27:53.534Z,9.12
2022-11-23T12:28:53.605Z,9.12
2022-11-23T12:29:53.771Z,8.88
2022-11-23T12:30:53.901Z,8.8
2022-11-23T12:31:54.064Z,9.04
2022-11-23T12:32:54.212Z,9.04
2022-11-23T12:33:54.713Z,8.8
2022-11-23T12:34:54.488Z,8.72
2022-11-23T12:35:54.632Z,8.72
2022-11-23T12:36:54.777Z,8.88
2022-11-23T12:37:54.929Z,9.04
2022-11-23T12:38:55.038Z,8.72
2022-11-23T12:39:55.180Z,8.639999
2022-11-23T12:40:55.332Z,8.72
2022-11-23T12:41:55.488Z,8.639999
2022-11-23T12:42:55.636Z,8.48
2022-11-23T12:43:55.744Z,8.639999
2022-11-23T12:44:55.896Z,8.72
2022-11-23T12:45:56.032Z,8.48
2022-11-23T12:46:56.188Z,8.639999
2022-11-23T12:47:56.405Z,8.639999
2022-11-23T12:48:56.439Z,8.48
2022-11-23T12:49:56.594Z,8.48
2022-11-23T12:50:56.754Z,8.32
2022-11-23T12:51:57.095Z,8.4
2022-11-23T12:52:56.950Z,8.32
2022-11-23T12:53:57.135Z,8.4
2022-11-23T12:54:57.207Z,8.4
2022-11-23T12:55:57.395Z,8.72
2022-11-23T12:56:57.576Z,8.48
2022-11-23T12:57:57.731Z,8.639999
2022-11-23T12:58:57.873Z,8.639999
2022-11-23T12:59:58.033Z,8.639999
2022-11-23T13:00:58.230Z,8.72
2022-11-23T13:01:58.343Z,8.72
2022-11-23T13:02:58.478Z,8.72
2022-11-23T13:03:58.647Z,8.639999
2022-11-23T13:04:58.763Z,8.48
2022-11-23T13:05:58.888Z,8.32
2022-11-23T13:07:26.601Z,8.32
2022-11-23T13:07:59.229Z,8.32
2022-11-23T13:08:59.304Z,8.32
2022-11-23T13:09:59.442Z,8.24
2022-11-23T13:10:59.588Z,8.24
2022-11-23T13:11:59.744Z,8.24
2022-11-23T13:12:59.890Z,8.4
2022-11-23T13:14:00.044Z,8.48
2022-11-23T13:15:00.195Z,8.24
2022-11-23T13:16:00.534Z,8.24
2022-11-23T13:17:00.570Z,8
2022-11-23T13:18:00.656Z,8.08
2022-11-23T13:19:04.590Z,8.08